sensor_id;sensor_type;location;lat;lon;timestamp;pressure;altitude;pressure_sealevel;temperature;humidity
6778;BME280;3426;52.244;10.534;2023-02-21T00:00:12;100702.22;;;10.50;90.68
6778;BME280;3426;52.244;10.534;2023-02-21T00:02:58;100688.22;;;10.64;88.25
6778;BME280;3426;52.244;10.534;2023-02-21T00:05:43;100695.22;;;10.65;88.86
6778;BME280;3426;52.244;10.534;2023-02-21T00:08:27;100682.84;;;11.28;86.97
6778;BME280;3426;52.244;10.534;2023-02-21T00:11:13;100687.16;;;10.83;88.64
6778;BME280;3426;52.244;10.534;2023-02-21T00:13:57;100692.31;;;10.53;89.06
6778;BME280;3426;52.244;10.534;2023-02-21T00:16:42;100694.84;;;10.55;90.15
6778;BME280;3426;52.244;10.534;2023-02-21T00:19:27;100698.72;;;10.32;90.12
6778;BME280;3426;52.244;10.534;2023-02-21T00:22:12;100701.38;;;10.32;93.45
6778;BME280;3426;52.244;10.534;2023-02-21T00:24:57;100702.16;;;10.67;91.15
6778;BME280;3426;52.244;10.534;2023-02-21T00:27:42;100700.75;;;10.60;91.34
6778;BME280;3426;52.244;10.534;2023-02-21T00:30:27;100708.09;;;11.04;89.44
6778;BME280;3426;52.244;10.534;2023-02-21T00:33:12;100704.88;;;10.66;89.68
6778;BME280;3426;52.244;10.534;2023-02-21T00:35:57;100706.59;;;10.33;90.46
6778;BME280;3426;52.244;10.534;2023-02-21T00:38:41;100706.69;;;10.65;89.75
6778;BME280;3426;52.244;10.534;2023-02-21T00:41:26;100717.31;;;10.81;90.04
6778;BME280;3426;52.244;10.534;2023-02-21T00:44:11;100700.44;;;10.66;89.61
6778;BME280;3426;52.244;10.534;2023-02-21T00:46:56;100706.53;;;10.68;90.64
6778;BME280;3426;52.244;10.534;2023-02-21T00:49:41;100705.31;;;10.58;91.36
6778;BME280;3426;52.244;10.534;2023-02-21T00:52:26;100690.72;;;10.33;91.87
6778;BME280;3426;52.244;10.534;2023-02-21T00:55:11;100700.84;;;10.92;88.68
6778;BME280;3426;52.244;10.534;2023-02-21T00:57:56;100702.56;;;11.24;87.42
6778;BME280;3426;52.244;10.534;2023-02-21T01:00:41;100701.34;;;10.98;87.47
6778;BME280;3426;52.244;10.534;2023-02-21T01:03:25;100710.47;;;10.93;88.60
6778;BME280;3426;52.244;10.534;2023-02-21T01:06:11;100706.97;;;11.39;86.52
6778;BME280;3426;52.244;10.534;2023-02-21T01:08:56;100711.34;;;11.25;86.99
6778;BME280;3426;52.244;10.534;2023-02-21T01:11:41;100710.28;;;10.64;89.35
6778;BME280;3426;52.244;10.534;2023-02-21T01:14:26;100709.41;;;10.64;90.04
6778;BME280;3426;52.244;10.534;2023-02-21T01:17:11;100697.84;;;11.29;87.31
6778;BME280;3426;52.244;10.534;2023-02-21T01:19:56;100704.63;;;10.70;89.93
6778;BME280;3426;52.244;10.534;2023-02-21T01:22:40;100696.53;;;10.73;89.23
6778;BME280;3426;52.244;10.534;2023-02-21T01:25:25;100696.47;;;10.91;88.32
6778;BME280;3426;52.244;10.534;2023-02-21T01:28:10;100701.56;;;10.62;89.75
6778;BME280;3426;52.244;10.534;2023-02-21T01:30:55;100698.59;;;11.47;88.14
6778;BME280;3426;52.244;10.534;2023-02-21T01:33:40;100706.91;;;11.09;89.84
6778;BME280;3426;52.244;10.534;2023-02-21T01:36:26;100688.16;;;10.81;87.60
6778;BME280;3426;52.244;10.534;2023-02-21T01:39:11;100696.63;;;10.87;89.00
6778;BME280;3426;52.244;10.534;2023-02-21T01:41:57;100708.09;;;11.04;88.89
6778;BME280;3426;52.244;10.534;2023-02-21T01:44:46;100695.69;;;10.88;88.03
6778;BME280;3426;52.244;10.534;2023-02-21T01:47:32;100706.34;;;11.66;85.15
6778;BME280;3426;52.244;10.534;2023-02-21T01:53:06;100700.41;;;10.99;87.91
6778;BME280;3426;52.244;10.534;2023-02-21T01:55:54;100700.22;;;11.50;87.58
6778;BME280;3426;52.244;10.534;2023-02-21T01:58:39;100707.91;;;10.75;89.35
6778;BME280;3426;52.244;10.534;2023-02-21T02:01:38;100709.88;;;10.87;89.30
6778;BME280;3426;52.244;10.534;2023-02-21T02:04:24;100709.19;;;11.00;88.96
6778;BME280;3426;52.244;10.534;2023-02-21T02:07:09;100702.78;;;11.04;89.32
6778;BME280;3426;52.244;10.534;2023-02-21T02:09:55;100707.84;;;10.93;90.15
6778;BME280;3426;52.244;10.534;2023-02-21T02:32:10;100684.75;;;10.95;89.37
6778;BME280;3426;52.244;10.534;2023-02-21T02:37:32;100680.06;;;10.84;90.47
6778;BME280;3426;52.244;10.534;2023-02-21T02:40:39;100691.31;;;11.51;86.54
6778;BME280;3426;52.244;10.534;2023-02-21T02:48:13;100686.56;;;11.10;88.91
6778;BME280;3426;52.244;10.534;2023-02-21T02:50:40;100684.28;;;11.50;88.05
6778;BME280;3426;52.244;10.534;2023-02-21T02:53:09;100681.16;;;11.11;88.86
6778;BME280;3426;52.244;10.534;2023-02-21T02:58:12;100676.47;;;11.01;89.14
6778;BME280;3426;52.244;10.534;2023-02-21T03:00:42;100675.69;;;10.99;89.62
6778;BME280;3426;52.244;10.534;2023-02-21T03:08:37;100668.50;;;11.17;90.61
6778;BME280;3426;52.244;10.534;2023-02-21T03:11:13;100669.19;;;11.04;89.75
6778;BME280;3426;52.244;10.534;2023-02-21T03:18:48;100672.88;;;11.18;89.98
6778;BME280;3426;52.244;10.534;2023-02-21T03:21:20;100665.19;;;10.81;90.31
6778;BME280;3426;52.244;10.534;2023-02-21T03:23:49;100660.09;;;11.40;89.46
6778;BME280;3426;52.244;10.534;2023-02-21T03:26:17;100664.94;;;10.37;91.98
6778;BME280;3426;52.244;10.534;2023-02-21T03:28:45;100656.97;;;11.18;87.86
6778;BME280;3426;52.244;10.534;2023-02-21T03:31:15;100658.69;;;11.03;89.31
6778;BME280;3426;52.244;10.534;2023-02-21T03:33:44;100661.00;;;11.09;87.55
6778;BME280;3426;52.244;10.534;2023-02-21T03:36:11;100650.03;;;11.15;87.30
6778;BME280;3426;52.244;10.534;2023-02-21T03:38:38;100651.34;;;10.92;87.99
6778;BME280;3426;52.244;10.534;2023-02-21T03:41:07;100654.84;;;11.24;88.12
6778;BME280;3426;52.244;10.534;2023-02-21T03:43:34;100647.72;;;11.25;88.19
6778;BME280;3426;52.244;10.534;2023-02-21T03:46:00;100644.16;;;11.10;87.71
6778;BME280;3426;52.244;10.534;2023-02-21T03:48:27;100648.44;;;11.12;88.20
6778;BME280;3426;52.244;10.534;2023-02-21T03:50:58;100655.44;;;11.59;87.35
6778;BME280;3426;52.244;10.534;2023-02-21T03:53:25;100655.66;;;11.71;86.52
6778;BME280;3426;52.244;10.534;2023-02-21T03:55:51;100649.06;;;11.48;87.12
6778;BME280;3426;52.244;10.534;2023-02-21T03:58:18;100651.50;;;10.89;90.85
6778;BME280;3426;52.244;10.534;2023-02-21T04:00:44;100641.16;;;11.16;87.13
6778;BME280;3426;52.244;10.534;2023-02-21T04:03:11;100640.94;;;10.40;91.21
6778;BME280;3426;52.244;10.534;2023-02-21T04:05:37;100641.75;;;10.74;89.71
6778;BME280;3426;52.244;10.534;2023-02-21T04:08:04;100645.75;;;10.65;90.04
6778;BME280;3426;52.244;10.534;2023-02-21T04:10:30;100644.97;;;10.47;90.36
6778;BME280;3426;52.244;10.534;2023-02-21T04:13:03;100632.00;;;11.22;88.06
6778;BME280;3426;52.244;10.534;2023-02-21T04:15:29;100635.22;;;11.27;86.86
6778;BME280;3426;52.244;10.534;2023-02-21T04:17:56;100633.13;;;10.70;90.03
6778;BME280;3426;52.244;10.534;2023-02-21T04:20:22;100636.63;;;10.71;90.12
6778;BME280;3426;52.244;10.534;2023-02-21T04:22:49;100634.50;;;11.09;88.68
6778;BME280;3426;52.244;10.534;2023-02-21T04:25:28;100639.47;;;10.68;89.86
6778;BME280;3426;52.244;10.534;2023-02-21T04:27:55;100637.09;;;11.40;87.89
6778;BME280;3426;52.244;10.534;2023-02-21T04:30:21;100637.47;;;10.71;89.39
6778;BME280;3426;52.244;10.534;2023-02-21T04:32:48;100642.53;;;11.07;89.04
6778;BME280;3426;52.244;10.534;2023-02-21T04:35:14;100639.66;;;11.42;87.13
6778;BME280;3426;52.244;10.534;2023-02-21T04:37:41;100640.13;;;11.79;85.58
6778;BME280;3426;52.244;10.534;2023-02-21T04:40:10;100641.94;;;11.02;87.79
6778;BME280;3426;52.244;10.534;2023-02-21T04:42:37;100644.94;;;11.12;87.68
6778;BME280;3426;52.244;10.534;2023-02-21T04:45:03;100633.88;;;11.65;86.88
6778;BME280;3426;52.244;10.534;2023-02-21T04:47:30;100638.50;;;11.16;87.10
6778;BME280;3426;52.244;10.534;2023-02-21T04:49:56;100633.25;;;11.46;85.41
6778;BME280;3426;52.244;10.534;2023-02-21T04:52:23;100643.97;;;11.29;86.75
6778;BME280;3426;52.244;10.534;2023-02-21T04:54:50;100635.13;;;11.74;86.41
6778;BME280;3426;52.244;10.534;2023-02-21T04:57:16;100640.44;;;11.28;85.97
6778;BME280;3426;52.244;10.534;2023-02-21T04:59:43;100638.53;;;10.84;88.44
6778;BME280;3426;52.244;10.534;2023-02-21T05:02:09;100637.03;;;10.95;88.13
6778;BME280;3426;52.244;10.534;2023-02-21T05:04:37;100634.56;;;11.23;87.50
6778;BME280;3426;52.244;10.534;2023-02-21T05:07:04;100636.63;;;10.86;86.59
6778;BME280;3426;52.244;10.534;2023-02-21T05:09:30;100647.16;;;11.04;88.50
6778;BME280;3426;52.244;10.534;2023-02-21T05:11:57;100633.00;;;11.35;87.24
6778;BME280;3426;52.244;10.534;2023-02-21T05:14:23;100650.00;;;11.47;85.80
6778;BME280;3426;52.244;10.534;2023-02-21T05:16:50;100644.59;;;11.48;85.57
6778;BME280;3426;52.244;10.534;2023-02-21T05:19:20;100646.63;;;11.59;86.63
6778;BME280;3426;52.244;10.534;2023-02-21T05:21:57;100647.00;;;11.53;85.50
6778;BME280;3426;52.244;10.534;2023-02-21T05:24:29;100636.72;;;10.85;87.16
6778;BME280;3426;52.244;10.534;2023-02-21T05:26:56;100642.06;;;11.31;86.34
6778;BME280;3426;52.244;10.534;2023-02-21T05:29:23;100642.28;;;11.58;84.85
6778;BME280;3426;52.244;10.534;2023-02-21T05:31:50;100640.03;;;11.66;85.55
6778;BME280;3426;52.244;10.534;2023-02-21T05:34:16;100640.69;;;11.39;85.46
6778;BME280;3426;52.244;10.534;2023-02-21T05:36:45;100652.53;;;11.18;86.69
6778;BME280;3426;52.244;10.534;2023-02-21T05:39:11;100644.41;;;11.51;86.27
6778;BME280;3426;52.244;10.534;2023-02-21T05:41:38;100647.41;;;10.99;86.62
6778;BME280;3426;52.244;10.534;2023-02-21T05:44:04;100647.75;;;11.09;86.58
6778;BME280;3426;52.244;10.534;2023-02-21T05:46:33;100645.59;;;11.15;86.28
6778;BME280;3426;52.244;10.534;2023-02-21T05:49:01;100651.34;;;10.92;85.96
6778;BME280;3426;52.244;10.534;2023-02-21T05:51:40;100640.53;;;11.27;84.57
6778;BME280;3426;52.244;10.534;2023-02-21T05:54:08;100636.31;;;11.38;85.96
6778;BME280;3426;52.244;10.534;2023-02-21T05:56:41;100651.50;;;11.51;86.35
6778;BME280;3426;52.244;10.534;2023-02-21T05:59:08;100656.13;;;11.63;84.06
6778;BME280;3426;52.244;10.534;2023-02-21T06:01:35;100647.59;;;11.58;84.65
6778;BME280;3426;52.244;10.534;2023-02-21T06:04:02;100654.75;;;11.10;87.12
6778;BME280;3426;52.244;10.534;2023-02-21T06:06:28;100650.81;;;11.17;86.30
6778;BME280;3426;52.244;10.534;2023-02-21T06:08:55;100648.72;;;11.68;83.90
6778;BME280;3426;52.244;10.534;2023-02-21T06:11:29;100658.47;;;11.53;84.39
6778;BME280;3426;52.244;10.534;2023-02-21T06:14:00;100653.88;;;11.25;83.66
6778;BME280;3426;52.244;10.534;2023-02-21T06:16:32;100665.69;;;11.35;85.85
6778;BME280;3426;52.244;10.534;2023-02-21T06:19:00;100663.03;;;11.81;83.92
6778;BME280;3426;52.244;10.534;2023-02-21T06:21:27;100668.69;;;11.75;83.50
6778;BME280;3426;52.244;10.534;2023-02-21T06:23:53;100673.22;;;10.96;85.74
6778;BME280;3426;52.244;10.534;2023-02-21T06:26:21;100682.19;;;11.40;85.22
6778;BME280;3426;52.244;10.534;2023-02-21T06:28:48;100679.53;;;11.86;83.80
6778;BME280;3426;52.244;10.534;2023-02-21T06:31:16;100679.69;;;11.37;85.62
6778;BME280;3426;52.244;10.534;2023-02-21T06:33:43;100681.84;;;11.15;86.67
6778;BME280;3426;52.244;10.534;2023-02-21T06:36:13;100684.09;;;11.07;85.90
6778;BME280;3426;52.244;10.534;2023-02-21T06:38:46;100678.66;;;11.40;86.12
6778;BME280;3426;52.244;10.534;2023-02-21T06:41:14;100686.03;;;11.35;86.79
6778;BME280;3426;52.244;10.534;2023-02-21T06:43:41;100679.91;;;11.19;86.44
6778;BME280;3426;52.244;10.534;2023-02-21T06:46:08;100691.41;;;11.33;85.67
6778;BME280;3426;52.244;10.534;2023-02-21T06:48:34;100693.75;;;11.08;85.84
6778;BME280;3426;52.244;10.534;2023-02-21T06:51:01;100703.59;;;11.67;84.64
6778;BME280;3426;52.244;10.534;2023-02-21T06:53:27;100703.44;;;12.01;82.86
6778;BME280;3426;52.244;10.534;2023-02-21T06:55:54;100709.47;;;11.43;83.87
6778;BME280;3426;52.244;10.534;2023-02-21T06:58:20;100714.31;;;11.50;84.88
6778;BME280;3426;52.244;10.534;2023-02-21T07:00:47;100717.63;;;11.70;83.14
6778;BME280;3426;52.244;10.534;2023-02-21T07:03:13;100719.22;;;11.26;84.69
6778;BME280;3426;52.244;10.534;2023-02-21T07:05:40;100716.75;;;11.07;87.46
6778;BME280;3426;52.244;10.534;2023-02-21T07:08:06;100719.72;;;11.17;85.56
6778;BME280;3426;52.244;10.534;2023-02-21T07:10:32;100724.03;;;11.97;82.68
6778;BME280;3426;52.244;10.534;2023-02-21T07:12:59;100728.13;;;12.17;82.50
6778;BME280;3426;52.244;10.534;2023-02-21T07:15:26;100737.53;;;11.47;85.68
6778;BME280;3426;52.244;10.534;2023-02-21T07:17:52;100733.72;;;11.66;84.07
6778;BME280;3426;52.244;10.534;2023-02-21T07:20:18;100742.78;;;11.62;84.75
6778;BME280;3426;52.244;10.534;2023-02-21T07:22:45;100736.97;;;11.72;83.70
6778;BME280;3426;52.244;10.534;2023-02-21T07:25:16;100738.50;;;11.76;83.66
6778;BME280;3426;52.244;10.534;2023-02-21T07:27:43;100741.88;;;11.48;86.49
6778;BME280;3426;52.244;10.534;2023-02-21T07:30:10;100747.28;;;11.14;86.51
6778;BME280;3426;52.244;10.534;2023-02-21T07:32:37;100748.28;;;11.59;84.90
6778;BME280;3426;52.244;10.534;2023-02-21T07:35:03;100745.22;;;11.35;85.30
6778;BME280;3426;52.244;10.534;2023-02-21T07:37:30;100747.31;;;11.92;82.71
6778;BME280;3426;52.244;10.534;2023-02-21T07:39:56;100743.34;;;11.22;85.79
6778;BME280;3426;52.244;10.534;2023-02-21T07:42:23;100756.53;;;11.23;86.63
6778;BME280;3426;52.244;10.534;2023-02-21T07:44:56;100759.59;;;10.67;89.63
6778;BME280;3426;52.244;10.534;2023-02-21T07:47:24;100753.25;;;11.50;86.76
6778;BME280;3426;52.244;10.534;2023-02-21T07:49:50;100746.31;;;11.15;87.78
6778;BME280;3426;52.244;10.534;2023-02-21T07:52:20;100751.63;;;11.31;86.71
6778;BME280;3426;52.244;10.534;2023-02-21T07:54:47;100753.06;;;10.90;87.87
6778;BME280;3426;52.244;10.534;2023-02-21T07:57:17;100768.06;;;10.73;89.53
6778;BME280;3426;52.244;10.534;2023-02-21T07:59:43;100754.94;;;11.51;86.96
6778;BME280;3426;52.244;10.534;2023-02-21T08:02:11;100761.28;;;11.32;85.91
6778;BME280;3426;52.244;10.534;2023-02-21T08:04:37;100761.38;;;11.15;87.87
6778;BME280;3426;52.244;10.534;2023-02-21T08:07:05;100765.41;;;11.38;88.64
6778;BME280;3426;52.244;10.534;2023-02-21T08:09:32;100770.94;;;11.02;88.21
6778;BME280;3426;52.244;10.534;2023-02-21T08:11:59;100775.91;;;11.39;88.41
6778;BME280;3426;52.244;10.534;2023-02-21T08:14:25;100778.03;;;10.68;89.10
6778;BME280;3426;52.244;10.534;2023-02-21T08:16:52;100779.78;;;11.18;87.02
6778;BME280;3426;52.244;10.534;2023-02-21T08:19:18;100782.59;;;11.31;87.02
6778;BME280;3426;52.244;10.534;2023-02-21T08:21:46;100782.03;;;10.93;88.05
6778;BME280;3426;52.244;10.534;2023-02-21T08:24:13;100780.47;;;11.37;88.51
6778;BME280;3426;52.244;10.534;2023-02-21T08:26:40;100777.03;;;11.51;88.07
6778;BME280;3426;52.244;10.534;2023-02-21T08:29:08;100779.59;;;11.21;86.82
6778;BME280;3426;52.244;10.534;2023-02-21T08:31:36;100780.19;;;11.26;86.41
6778;BME280;3426;52.244;10.534;2023-02-21T08:34:04;100780.56;;;11.52;85.60
6778;BME280;3426;52.244;10.534;2023-02-21T08:36:32;100772.31;;;11.72;86.15
6778;BME280;3426;52.244;10.534;2023-02-21T08:38:59;100768.75;;;11.57;86.19
6778;BME280;3426;52.244;10.534;2023-02-21T08:41:43;100778.91;;;11.49;85.56
6778;BME280;3426;52.244;10.534;2023-02-21T08:44:12;100778.06;;;11.80;84.42
6778;BME280;3426;52.244;10.534;2023-02-21T08:46:42;100786.59;;;11.06;87.71
6778;BME280;3426;52.244;10.534;2023-02-21T08:49:09;100776.94;;;11.84;84.26
6778;BME280;3426;52.244;10.534;2023-02-21T08:51:36;100776.84;;;11.70;85.22
6778;BME280;3426;52.244;10.534;2023-02-21T08:54:02;100786.63;;;11.54;85.13
6778;BME280;3426;52.244;10.534;2023-02-21T08:56:29;100778.63;;;12.01;84.05
6778;BME280;3426;52.244;10.534;2023-02-21T08:58:56;100793.78;;;11.20;86.86
6778;BME280;3426;52.244;10.534;2023-02-21T09:01:23;100792.00;;;11.21;87.93
6778;BME280;3426;52.244;10.534;2023-02-21T09:03:50;100794.75;;;11.82;84.89
6778;BME280;3426;52.244;10.534;2023-02-21T09:06:17;100792.06;;;12.14;82.96
6778;BME280;3426;52.244;10.534;2023-02-21T09:08:43;100790.13;;;11.54;84.34
6778;BME280;3426;52.244;10.534;2023-02-21T09:11:10;100796.38;;;11.69;84.32
6778;BME280;3426;52.244;10.534;2023-02-21T09:13:36;100792.22;;;12.11;84.54
6778;BME280;3426;52.244;10.534;2023-02-21T09:16:03;100801.06;;;11.96;83.30
6778;BME280;3426;52.244;10.534;2023-02-21T09:18:30;100804.06;;;11.89;83.27
6778;BME280;3426;52.244;10.534;2023-02-21T09:20:57;100814.94;;;12.01;85.00
6778;BME280;3426;52.244;10.534;2023-02-21T09:23:26;100802.97;;;12.54;80.97
6778;BME280;3426;52.244;10.534;2023-02-21T09:25:53;100797.66;;;12.24;83.48
6778;BME280;3426;52.244;10.534;2023-02-21T09:28:20;100802.34;;;11.57;84.25
6778;BME280;3426;52.244;10.534;2023-02-21T09:30:48;100804.22;;;12.02;83.14
6778;BME280;3426;52.244;10.534;2023-02-21T09:33:15;100804.88;;;11.91;84.33
6778;BME280;3426;52.244;10.534;2023-02-21T09:35:42;100804.22;;;12.62;81.13
6778;BME280;3426;52.244;10.534;2023-02-21T09:38:09;100805.53;;;11.95;84.79
6778;BME280;3426;52.244;10.534;2023-02-21T09:40:44;100798.94;;;11.55;84.96
6778;BME280;3426;52.244;10.534;2023-02-21T09:43:35;100805.72;;;11.92;84.20
6778;BME280;3426;52.244;10.534;2023-02-21T09:46:20;100799.38;;;12.25;83.95
6778;BME280;3426;52.244;10.534;2023-02-21T09:48:50;100808.00;;;12.14;83.82
6778;BME280;3426;52.244;10.534;2023-02-21T09:51:17;100797.28;;;12.15;83.03
6778;BME280;3426;52.244;10.534;2023-02-21T09:53:46;100796.44;;;12.73;81.60
6778;BME280;3426;52.244;10.534;2023-02-21T09:56:20;100798.84;;;11.72;83.43
6778;BME280;3426;52.244;10.534;2023-02-21T09:58:48;100789.69;;;12.68;82.29
6778;BME280;3426;52.244;10.534;2023-02-21T10:05:15;100798.66;;;12.07;82.59
6778;BME280;3426;52.244;10.534;2023-02-21T10:07:38;100789.78;;;12.22;83.35
6778;BME280;3426;52.244;10.534;2023-02-21T10:10:13;100784.66;;;12.63;81.57
6778;BME280;3426;52.244;10.534;2023-02-21T10:21:43;100783.06;;;12.89;80.41
6778;BME280;3426;52.244;10.534;2023-02-21T10:24:13;100790.69;;;12.07;82.68
6778;BME280;3426;52.244;10.534;2023-02-21T10:26:45;100792.19;;;12.27;82.10
6778;BME280;3426;52.244;10.534;2023-02-21T10:29:21;100788.63;;;12.12;82.47
6778;BME280;3426;52.244;10.534;2023-02-21T10:31:53;100801.78;;;12.88;80.34
6778;BME280;3426;52.244;10.534;2023-02-21T10:34:26;100798.16;;;12.74;80.29
6778;BME280;3426;52.244;10.534;2023-02-21T10:36:55;100807.66;;;12.34;82.04
6778;BME280;3426;52.244;10.534;2023-02-21T10:39:35;100813.06;;;12.91;80.81
6778;BME280;3426;52.244;10.534;2023-02-21T10:42:11;100821.84;;;12.63;80.93
6778;BME280;3426;52.244;10.534;2023-02-21T10:44:44;100820.63;;;12.55;81.43
6778;BME280;3426;52.244;10.534;2023-02-21T10:47:22;100820.22;;;13.05;78.71
6778;BME280;3426;52.244;10.534;2023-02-21T10:50:06;100823.88;;;12.74;80.24
6778;BME280;3426;52.244;10.534;2023-02-21T10:52:46;100819.19;;;13.22;78.08
6778;BME280;3426;52.244;10.534;2023-02-21T10:55:17;100819.22;;;12.33;80.32
6778;BME280;3426;52.244;10.534;2023-02-21T10:57:58;100821.41;;;12.41;80.68
6778;BME280;3426;52.244;10.534;2023-02-21T11:00:39;100820.09;;;12.78;79.03
6778;BME280;3426;52.244;10.534;2023-02-21T11:05:52;100820.56;;;12.40;80.81
6778;BME280;3426;52.244;10.534;2023-02-21T11:08:38;100823.69;;;12.77;80.20
6778;BME280;3426;52.244;10.534;2023-02-21T11:11:05;100823.22;;;12.40;81.87
6778;BME280;3426;52.244;10.534;2023-02-21T11:13:32;100821.69;;;12.36;82.65
6778;BME280;3426;52.244;10.534;2023-02-21T11:18:38;100813.09;;;13.34;78.32
6778;BME280;3426;52.244;10.534;2023-02-21T11:21:14;100825.38;;;12.64;80.22
6778;BME280;3426;52.244;10.534;2023-02-21T11:24:00;100816.16;;;13.96;75.67
6778;BME280;3426;52.244;10.534;2023-02-21T11:29:09;100825.38;;;13.64;76.87
6778;BME280;3426;52.244;10.534;2023-02-21T11:31:36;100825.91;;;13.42;76.77
6778;BME280;3426;52.244;10.534;2023-02-21T11:34:06;100842.31;;;13.48;77.50
6778;BME280;3426;52.244;10.534;2023-02-21T11:36:36;100838.13;;;12.87;78.14
6778;BME280;3426;52.244;10.534;2023-02-21T11:41:47;100833.59;;;13.46;75.12
6778;BME280;3426;52.244;10.534;2023-02-21T11:44:24;100831.78;;;13.88;74.28
6778;BME280;3426;52.244;10.534;2023-02-21T11:52:19;100823.47;;;13.66;76.29
6778;BME280;3426;52.244;10.534;2023-02-21T11:54:47;100830.44;;;13.54;76.29
6778;BME280;3426;52.244;10.534;2023-02-21T11:57:17;100825.44;;;13.35;74.77
6778;BME280;3426;52.244;10.534;2023-02-21T12:05:17;100838.91;;;13.18;77.48
6778;BME280;3426;52.244;10.534;2023-02-21T12:17:31;100826.72;;;13.98;73.83
6778;BME280;3426;52.244;10.534;2023-02-21T12:20:20;100829.25;;;13.72;73.67
6778;BME280;3426;52.244;10.534;2023-02-21T12:25:53;100826.75;;;13.84;73.86
6778;BME280;3426;52.244;10.534;2023-02-21T12:36:50;100818.03;;;13.82;70.53
6778;BME280;3426;52.244;10.534;2023-02-21T12:39:39;100813.16;;;13.47;73.11
6778;BME280;3426;52.244;10.534;2023-02-21T12:45:28;100808.06;;;14.25;70.25
6778;BME280;3426;52.244;10.534;2023-02-21T12:50:52;100807.38;;;12.97;72.69
6778;BME280;3426;52.244;10.534;2023-02-21T12:53:29;100805.06;;;13.63;71.38
6778;BME280;3426;52.244;10.534;2023-02-21T12:56:23;100811.53;;;12.73;73.27
6778;BME280;3426;52.244;10.534;2023-02-21T12:58:58;100813.13;;;12.76;72.93
6778;BME280;3426;52.244;10.534;2023-02-21T13:01:55;100810.31;;;12.79;72.37
6778;BME280;3426;52.244;10.534;2023-02-21T13:04:31;100802.28;;;13.64;70.39
6778;BME280;3426;52.244;10.534;2023-02-21T13:07:05;100794.03;;;13.96;68.95
6778;BME280;3426;52.244;10.534;2023-02-21T13:09:42;100798.25;;;13.44;69.78
6778;BME280;3426;52.244;10.534;2023-02-21T13:12:14;100797.06;;;13.63;70.15
6778;BME280;3426;52.244;10.534;2023-02-21T13:14:47;100789.56;;;13.55;69.95
6778;BME280;3426;52.244;10.534;2023-02-21T13:17:16;100791.03;;;13.46;70.03
6778;BME280;3426;52.244;10.534;2023-02-21T13:19:58;100799.50;;;12.96;71.84
6778;BME280;3426;52.244;10.534;2023-02-21T13:28:34;100788.28;;;14.02;68.61
6778;BME280;3426;52.244;10.534;2023-02-21T13:31:05;100781.84;;;13.65;69.42
6778;BME280;3426;52.244;10.534;2023-02-21T13:36:22;100777.84;;;14.12;67.00
6778;BME280;3426;52.244;10.534;2023-02-21T13:39:02;100772.97;;;13.51;68.97
6778;BME280;3426;52.244;10.534;2023-02-21T13:41:34;100774.69;;;13.79;68.42
6778;BME280;3426;52.244;10.534;2023-02-21T13:44:07;100775.28;;;13.29;70.54
6778;BME280;3426;52.244;10.534;2023-02-21T14:08:29;100779.44;;;14.01;68.28
6778;BME280;3426;52.244;10.534;2023-02-21T14:11:00;100778.22;;;14.20;67.46
6778;BME280;3426;52.244;10.534;2023-02-21T14:18:41;100775.09;;;13.73;68.26
6778;BME280;3426;52.244;10.534;2023-02-21T14:24:18;100769.66;;;14.54;67.34
6778;BME280;3426;52.244;10.534;2023-02-21T14:26:54;100762.38;;;13.64;69.04
6778;BME280;3426;52.244;10.534;2023-02-21T14:32:34;100764.47;;;13.86;69.63
6778;BME280;3426;52.244;10.534;2023-02-21T15:00:01;100769.09;;;13.97;69.05
6778;BME280;3426;52.244;10.534;2023-02-21T15:02:42;100761.44;;;13.78;68.57
6778;BME280;3426;52.244;10.534;2023-02-21T15:05:19;100757.84;;;13.52;69.80
6778;BME280;3426;52.244;10.534;2023-02-21T15:07:57;100767.78;;;14.29;66.63
6778;BME280;3426;52.244;10.534;2023-02-21T15:10:49;100765.31;;;14.14;67.64
6778;BME280;3426;52.244;10.534;2023-02-21T15:13:23;100764.78;;;14.34;65.64
6778;BME280;3426;52.244;10.534;2023-02-21T15:16:11;100765.38;;;14.12;66.24
6778;BME280;3426;52.244;10.534;2023-02-21T15:18:59;100761.97;;;14.75;64.95
6778;BME280;3426;52.244;10.534;2023-02-21T15:21:25;100767.72;;;14.56;64.42
6778;BME280;3426;52.244;10.534;2023-02-21T15:24:01;100761.94;;;14.37;66.61
6778;BME280;3426;52.244;10.534;2023-02-21T15:26:30;100763.91;;;13.54;68.78
6778;BME280;3426;52.244;10.534;2023-02-21T15:29:10;100770.44;;;13.07;70.86
6778;BME280;3426;52.244;10.534;2023-02-21T15:31:45;100769.91;;;13.85;69.90
6778;BME280;3426;52.244;10.534;2023-02-21T15:34:19;100772.41;;;13.46;70.54
6778;BME280;3426;52.244;10.534;2023-02-21T15:36:51;100767.03;;;14.27;67.67
6778;BME280;3426;52.244;10.534;2023-02-21T15:39:28;100765.09;;;14.17;67.54
6778;BME280;3426;52.244;10.534;2023-02-21T15:41:56;100767.66;;;13.78;68.80
6778;BME280;3426;52.244;10.534;2023-02-21T15:44:29;100760.25;;;13.96;67.62
6778;BME280;3426;52.244;10.534;2023-02-21T15:47:03;100759.16;;;14.39;66.48
6778;BME280;3426;52.244;10.534;2023-02-21T15:49:38;100766.09;;;14.41;66.29
6778;BME280;3426;52.244;10.534;2023-02-21T15:52:05;100762.56;;;13.06;70.77
6778;BME280;3426;52.244;10.534;2023-02-21T15:54:34;100759.88;;;13.20;70.62
6778;BME280;3426;52.244;10.534;2023-02-21T15:59:35;100763.16;;;13.52;70.30
6778;BME280;3426;52.244;10.534;2023-02-21T16:02:13;100754.97;;;13.28;71.37
6778;BME280;3426;52.244;10.534;2023-02-21T16:04:45;100760.84;;;14.27;67.47
6778;BME280;3426;52.244;10.534;2023-02-21T16:07:27;100758.66;;;13.40;70.32
6778;BME280;3426;52.244;10.534;2023-02-21T16:10:00;100754.47;;;13.21;71.77
6778;BME280;3426;52.244;10.534;2023-02-21T16:12:40;100760.53;;;13.79;69.49
6778;BME280;3426;52.244;10.534;2023-02-21T16:17:39;100760.09;;;13.17;72.92
6778;BME280;3426;52.244;10.534;2023-02-21T16:22:44;100761.59;;;13.35;70.37
6778;BME280;3426;52.244;10.534;2023-02-21T16:25:32;100769.44;;;13.78;69.41
6778;BME280;3426;52.244;10.534;2023-02-21T16:27:59;100756.69;;;13.83;69.41